createdAt,value
2023-05-14T00:00:20.596Z,12.15
2023-05-14T00:03:09.244Z,12.14
2023-05-14T00:05:37.686Z,12.14
2023-05-14T00:08:06.353Z,12.13
2023-05-14T00:11:38.462Z,12.12
2023-05-14T00:15:28.144Z,12.10
2023-05-14T00:19:17.919Z,12.11
2023-05-14T00:23:07.621Z,12.13
2023-05-14T00:26:57.530Z,12.16
2023-05-14T00:46:26.162Z,12.38
2023-05-14T00:50:15.624Z,12.39
2023-05-14T00:54:05.235Z,12.43
2023-05-14T01:09:21.375Z,12.55
2023-05-14T01:13:16.414Z,12.53
2023-05-14T01:17:05.768Z,12.55
2023-05-14T01:20:55.072Z,12.55
2023-05-14T01:24:44.519Z,12.54
2023-05-14T01:28:37.174Z,12.53
2023-05-14T01:48:04.409Z,12.41
2023-05-14T01:51:30.698Z,12.36
2023-05-14T01:55:12.641Z,12.34
2023-05-14T01:59:02.306Z,12.31
2023-05-14T02:02:14.274Z,12.27
2023-05-14T02:06:03.596Z,12.23
2023-05-14T02:47:33.108Z,11.93
2023-05-14T02:51:22.403Z,11.87
2023-05-14T02:55:04.629Z,11.83
2023-05-14T02:58:54.418Z,11.80
2023-05-14T03:18:23.366Z,11.54
2023-05-14T03:22:12.633Z,11.45
2023-05-14T03:25:54.448Z,11.40
2023-05-14T03:37:34.809Z,11.38
2023-05-14T03:41:17.684Z,11.35
2023-05-14T03:44:59.877Z,11.36
2023-05-14T03:48:50.346Z,11.39
2023-05-14T03:52:40.584Z,11.45
2023-05-14T03:56:16.696Z,11.52
2023-05-14T04:11:58.331Z,11.84
2023-05-14T04:15:47.934Z,11.85
2023-05-14T04:31:07.419Z,12.00
2023-05-14T04:34:56.637Z,12.01
2023-05-14T04:38:46.019Z,12.08
2023-05-14T04:54:27.661Z,12.76
2023-05-14T04:58:16.996Z,13.07
2023-05-14T05:02:06.025Z,13.40
2023-05-14T05:05:55.425Z,13.90
2023-05-14T05:09:44.934Z,14.53
2023-05-14T05:25:26.662Z,16.75
2023-05-14T05:29:08.990Z,16.77
2023-05-14T05:32:58.732Z,16.80
2023-05-14T05:36:43.035Z,16.92
2023-05-14T05:55:54.100Z,17.89
2023-05-14T05:59:23.061Z,18.22
2023-05-14T06:03:12.753Z,18.56
2023-05-14T06:10:10.534Z,18.63
2023-05-14T06:14:28.227Z,18.78
2023-05-14T06:18:17.739Z,18.86
2023-05-14T06:22:07.267Z,18.93
2023-05-14T06:44:44.427Z,19.37
2023-05-14T06:48:33.768Z,19.25
2023-05-14T06:52:02.795Z,19.33
2023-05-14T07:03:55.470Z,19.52
2023-05-14T07:07:44.868Z,19.59
2023-05-14T07:11:15.061Z,19.68
2023-05-14T07:26:54.276Z,19.74
2023-05-14T07:30:23.530Z,19.83
2023-05-14T07:34:13.187Z,19.87
2023-05-14T07:39:35.112Z,20.03
2023-05-14T07:42:41.686Z,20.16
2023-05-14T07:46:32.852Z,20.28
2023-05-14T08:12:54.213Z,20.92
2023-05-14T08:16:44.492Z,20.97
2023-05-14T08:32:23.327Z,21.05
2023-05-14T08:36:13.495Z,21.13
2023-05-14T08:40:02.993Z,21.21
2023-05-14T08:44:31.822Z,21.33
2023-05-14T08:48:22.264Z,21.37
2023-05-14T09:03:42.760Z,21.76
2023-05-14T09:07:28.043Z,21.83
2023-05-14T09:11:16.876Z,21.90
2023-05-14T09:43:43.894Z,22.40
2023-05-14T09:46:12.361Z,22.44
2023-05-14T09:48:41.862Z,22.43
2023-05-14T09:51:11.947Z,22.44
2023-05-14T09:53:41.530Z,22.45
2023-05-14T09:56:10.159Z,22.46
2023-05-14T09:58:39.155Z,22.46
2023-05-14T10:01:08.868Z,22.48
2023-05-14T10:03:40.948Z,22.56
2023-05-14T10:06:16.459Z,22.68
2023-05-14T10:08:49.017Z,22.80
2023-05-14T10:11:28.000Z,22.86
2023-05-14T10:14:08.825Z,22.79
2023-05-14T10:16:51.927Z,22.71
2023-05-14T10:19:25.837Z,22.64
2023-05-14T10:22:04.910Z,22.54
2023-05-14T10:24:36.453Z,22.45
2023-05-14T10:27:05.732Z,22.32
2023-05-14T10:29:37.042Z,22.20
2023-05-14T10:32:09.445Z,22.14
2023-05-14T10:34:48.866Z,22.06
2023-05-14T10:37:21.527Z,22.00
2023-05-14T10:39:56.618Z,21.94
2023-05-14T10:42:27.929Z,21.92
2023-05-14T10:45:07.536Z,21.88
2023-05-14T10:47:38.832Z,21.84
2023-05-14T10:50:09.460Z,21.81
2023-05-14T10:52:38.061Z,21.78
2023-05-14T10:55:07.928Z,21.79
2023-05-14T10:57:38.537Z,21.83
2023-05-14T11:00:09.219Z,21.96
2023-05-14T11:02:43.357Z,22.10
2023-05-14T11:05:17.914Z,22.20
2023-05-14T11:07:56.177Z,22.33
2023-05-14T11:10:31.696Z,22.42
2023-05-14T11:21:27.581Z,22.70
2023-05-14T12:10:50.949Z,23.06
2023-05-14T12:13:40.029Z,23.07
2023-05-14T12:16:33.990Z,22.96
2023-05-14T12:19:04.077Z,22.83
2023-05-14T12:21:32.671Z,22.76
2023-05-14T12:24:01.579Z,22.68
2023-05-14T12:27:04.757Z,22.62
2023-05-14T12:30:20.048Z,22.57
2023-05-14T12:32:54.558Z,22.53
2023-05-14T12:35:23.524Z,22.52
2023-05-14T12:37:52.168Z,22.50
2023-05-14T12:40:20.637Z,22.45
2023-05-14T12:42:51.782Z,22.42
2023-05-14T12:45:20.211Z,22.39
2023-05-14T12:47:48.677Z,22.39
2023-05-14T12:50:20.327Z,22.42
2023-05-14T12:52:48.849Z,22.47
2023-05-14T12:55:17.414Z,22.53
2023-05-14T12:57:45.891Z,22.59
2023-05-14T13:00:15.647Z,22.65
2023-05-14T13:02:44.524Z,22.74
2023-05-14T13:05:13.085Z,22.86
2023-05-14T13:07:41.863Z,22.91
2023-05-14T13:10:10.636Z,22.91
2023-05-14T13:12:38.943Z,22.86
2023-05-14T13:15:07.845Z,22.88
2023-05-14T13:17:38.654Z,22.89
2023-05-14T13:20:18.248Z,22.93
2023-05-14T13:22:46.890Z,23.03
2023-05-14T13:25:15.243Z,23.15
2023-05-14T13:27:43.586Z,23.28
2023-05-14T13:30:12.453Z,23.40
2023-05-14T13:32:42.278Z,23.50
2023-05-14T13:35:11.697Z,23.53
2023-05-14T13:37:40.041Z,23.55
2023-05-14T13:40:09.570Z,23.60
2023-05-14T13:42:39.891Z,23.63
2023-05-14T13:45:08.744Z,23.64
2023-05-14T13:47:37.173Z,23.67
2023-05-14T13:50:05.975Z,23.69
2023-05-14T13:52:34.404Z,23.73
2023-05-14T13:55:02.750Z,23.72
2023-05-14T13:57:31.580Z,23.73
2023-05-14T14:00:02.307Z,23.75
2023-05-14T14:02:34.187Z,23.78
2023-05-14T14:05:06.378Z,23.77
2023-05-14T14:07:34.905Z,23.76
2023-05-14T14:10:03.307Z,23.72
2023-05-14T14:12:31.930Z,23.67
2023-05-14T14:15:01.296Z,23.61
2023-05-14T14:17:29.580Z,23.56
2023-05-14T14:19:57.908Z,23.53
2023-05-14T14:22:28.203Z,23.55
2023-05-14T14:24:57.970Z,23.53
2023-05-14T14:27:26.514Z,23.50
2023-05-14T14:29:56.945Z,23.42
2023-05-14T14:32:25.296Z,23.31
2023-05-14T14:34:53.836Z,23.20
2023-05-14T14:37:23.145Z,23.14
2023-05-14T14:39:51.826Z,23.09
2023-05-14T14:42:20.294Z,23.03
2023-05-14T14:44:48.520Z,22.98
2023-05-14T14:47:17.106Z,22.96
2023-05-14T14:49:45.559Z,22.94
2023-05-14T14:52:14.129Z,22.89
2023-05-14T14:54:42.645Z,22.84
2023-05-14T14:57:12.257Z,22.78
2023-05-14T14:59:40.850Z,22.74
2023-05-14T15:02:09.901Z,22.72
2023-05-14T15:04:39.064Z,22.70
2023-05-14T15:07:07.763Z,22.66
2023-05-14T15:09:39.672Z,22.63
2023-05-14T15:12:09.803Z,22.59
2023-05-14T15:14:40.094Z,22.55
2023-05-14T15:17:08.752Z,22.51
2023-05-14T15:19:37.083Z,22.47
2023-05-14T15:22:05.620Z,22.43
2023-05-14T15:24:34.010Z,22.35
2023-05-14T15:27:02.313Z,22.30
2023-05-14T15:30:06.675Z,22.26
2023-05-14T15:32:35.851Z,22.21
2023-05-14T15:35:09.337Z,22.13
2023-05-14T15:37:50.559Z,22.17
2023-05-14T15:40:19.351Z,22.16
2023-05-14T15:43:17.354Z,22.13
2023-05-14T15:45:49.460Z,22.12
2023-05-14T15:48:18.274Z,22.09
2023-05-14T15:50:51.186Z,22.08
2023-05-14T15:53:29.426Z,22.06
2023-05-14T15:55:59.816Z,22.02
2023-05-14T15:58:29.040Z,21.99
2023-05-14T16:01:37.867Z,21.93
2023-05-14T16:23:03.283Z,21.60
2023-05-14T16:25:47.634Z,21.56
2023-05-14T16:31:36.157Z,21.49
2023-05-14T16:41:58.110Z,21.35
2023-05-14T16:44:58.556Z,21.36
2023-05-14T16:48:54.613Z,21.30
2023-05-14T16:52:07.715Z,21.18
2023-05-14T16:55:02.821Z,21.19
2023-05-14T16:58:05.720Z,21.15
2023-05-14T17:00:34.316Z,21.10
2023-05-14T17:03:03.361Z,21.05
2023-05-14T17:05:34.916Z,21.02
2023-05-14T17:08:05.140Z,20.94
2023-05-14T17:11:28.734Z,20.81
2023-05-14T17:14:50.875Z,20.64
